createdAt,value
2022-10-02T00:00:47.232Z,3.15
2022-10-02T00:03:21.936Z,3.03
2022-10-02T00:05:51.145Z,3.00
2022-10-02T00:08:26.014Z,3.30
2022-10-02T00:10:55.991Z,3.33
2022-10-02T00:13:29.320Z,3.42
2022-10-02T00:15:57.114Z,2.90
2022-10-02T00:18:30.837Z,3.05
2022-10-02T00:21:04.581Z,3.15
2022-10-02T00:23:34.755Z,3.13
2022-10-02T00:26:06.385Z,3.10
2022-10-02T00:28:56.904Z,3.30
2022-10-02T00:31:24.276Z,2.72
2022-10-02T00:33:59.288Z,2.50
2022-10-02T00:37:05.124Z,2.90
2022-10-02T00:39:45.148Z,2.72
2022-10-02T00:42:33.793Z,2.80
2022-10-02T00:45:24.971Z,2.88
2022-10-02T00:47:52.289Z,2.67
2022-10-02T00:50:28.588Z,2.83
2022-10-02T00:52:56.879Z,2.33
2022-10-02T00:55:30.774Z,2.60
2022-10-02T00:58:11.569Z,2.20
2022-10-02T01:00:40.574Z,2.45
2022-10-02T01:03:23.741Z,2.15
2022-10-02T01:05:51.243Z,2.25
2022-10-02T01:08:18.592Z,3.08
2022-10-02T01:10:46.262Z,2.22
2022-10-02T01:13:13.676Z,2.60
2022-10-02T01:15:54.907Z,2.47
2022-10-02T01:18:22.423Z,2.25
2022-10-02T01:20:51.210Z,2.17
2022-10-02T01:23:29.289Z,2.25
2022-10-02T01:25:56.670Z,2.42
2022-10-02T01:28:24.234Z,2.60
2022-10-02T01:30:53.833Z,2.45
2022-10-02T01:33:21.120Z,2.38
2022-10-02T01:35:48.952Z,2.75
2022-10-02T01:38:18.262Z,3.08
2022-10-02T01:40:45.946Z,2.72
2022-10-02T01:43:15.528Z,2.22
2022-10-02T01:45:46.049Z,3.13
2022-10-02T01:48:16.483Z,3.17
2022-10-02T01:50:49.409Z,2.83
2022-10-02T01:53:36.936Z,3.42
2022-10-02T01:56:20.196Z,3.10
2022-10-02T01:58:50.704Z,2.78
2022-10-02T02:01:24.167Z,3.13
2022-10-02T02:03:57.659Z,3.35
2022-10-02T02:06:37.069Z,2.78
2022-10-02T02:09:11.050Z,2.70
2022-10-02T02:11:41.894Z,3.38
2022-10-02T02:14:11.969Z,3.30
2022-10-02T02:16:46.928Z,2.60
2022-10-02T02:19:14.269Z,3.05
2022-10-02T02:21:43.445Z,3.63
2022-10-02T02:24:33.878Z,3.40
2022-10-02T02:27:02.447Z,3.33
2022-10-02T02:29:32.180Z,2.85
2022-10-02T02:32:00.531Z,3.10
2022-10-02T02:34:35.862Z,3.28
2022-10-02T02:37:05.691Z,3.53
2022-10-02T02:39:38.217Z,2.95
2022-10-02T02:42:07.713Z,2.92
2022-10-02T02:44:39.288Z,2.60
2022-10-02T02:47:21.936Z,3.30
2022-10-02T02:49:51.991Z,2.75
2022-10-02T02:52:26.281Z,2.50
2022-10-02T02:54:57.400Z,3.00
2022-10-02T02:57:28.033Z,2.80
2022-10-02T02:59:57.349Z,2.40
2022-10-02T03:02:24.932Z,3.50
2022-10-02T03:04:52.365Z,2.60
2022-10-02T03:07:19.768Z,2.88
2022-10-02T03:09:56.693Z,2.90
2022-10-02T03:12:24.012Z,3.72
2022-10-02T03:15:00.469Z,2.95
2022-10-02T03:17:36.948Z,2.83
2022-10-02T03:20:11.930Z,2.83
2022-10-02T03:23:05.494Z,3.53
2022-10-02T03:25:51.290Z,2.83
2022-10-02T03:28:50.603Z,3.13
2022-10-02T03:31:13.276Z,3.35
2022-10-02T03:33:41.513Z,3.03
2022-10-02T03:36:11.217Z,3.40
2022-10-02T03:38:39.724Z,3.30
2022-10-02T03:41:07.139Z,3.40
2022-10-02T03:43:34.535Z,3.08
2022-10-02T03:46:01.880Z,3.42
2022-10-02T03:48:29.218Z,3.25
2022-10-02T03:50:56.585Z,4.40
2022-10-02T03:53:25.654Z,3.17
2022-10-02T03:56:03.837Z,3.13
2022-10-02T03:58:31.419Z,3.20
2022-10-02T04:00:59.068Z,3.70
2022-10-02T04:03:35.787Z,3.47
2022-10-02T04:06:06.084Z,3.17
2022-10-02T04:08:55.284Z,3.50
2022-10-02T04:11:33.698Z,3.92
2022-10-02T04:14:07.320Z,4.38
2022-10-02T04:16:39.512Z,5.00
2022-10-02T04:19:13.218Z,4.38
2022-10-02T04:21:44.604Z,4.50
2022-10-02T04:24:17.817Z,4.18
2022-10-02T04:26:48.321Z,4.13
2022-10-02T04:29:24.712Z,4.80
2022-10-02T04:31:55.130Z,4.40
2022-10-02T04:34:22.706Z,4.70
2022-10-02T04:36:49.973Z,4.90
2022-10-02T04:39:30.307Z,4.30
2022-10-02T04:42:02.753Z,4.90
2022-10-02T04:44:48.703Z,4.80
2022-10-02T04:47:22.044Z,4.85
2022-10-02T04:49:50.047Z,3.38
2022-10-02T04:52:17.486Z,4.25
2022-10-02T04:55:03.898Z,5.40
2022-10-02T04:57:50.115Z,4.10
2022-10-02T05:00:27.877Z,4.05
2022-10-02T05:03:16.730Z,4.03
2022-10-02T05:06:11.472Z,4.07
2022-10-02T05:08:39.079Z,5.07
2022-10-02T05:11:09.392Z,3.97
2022-10-02T05:13:42.434Z,4.82
2022-10-02T05:16:28.777Z,5.22
2022-10-02T05:19:08.189Z,4.30
2022-10-02T05:21:47.396Z,4.32
2022-10-02T05:24:35.015Z,4.57
2022-10-02T05:27:17.930Z,4.72
2022-10-02T05:30:05.004Z,4.63
2022-10-02T05:32:42.875Z,6.45
2022-10-02T05:35:31.997Z,4.68
2022-10-02T05:38:03.586Z,5.15
2022-10-02T05:40:33.801Z,5.25
2022-10-02T05:43:23.454Z,5.25
2022-10-02T05:45:56.645Z,4.90
2022-10-02T05:48:32.903Z,6.28
2022-10-02T05:51:02.670Z,7.47
2022-10-02T05:53:36.556Z,6.80
2022-10-02T05:56:12.668Z,6.93
2022-10-02T05:58:47.688Z,6.68
2022-10-02T06:01:21.974Z,6.20
2022-10-02T06:03:52.850Z,6.03
2022-10-02T06:06:20.104Z,6.15
2022-10-02T06:08:50.217Z,5.55
2022-10-02T06:11:29.674Z,5.97
2022-10-02T06:14:01.652Z,6.57
2022-10-02T06:16:42.127Z,6.38
2022-10-02T06:19:13.429Z,6.25
2022-10-02T06:21:59.164Z,7.18
2022-10-02T06:24:29.346Z,5.88
2022-10-02T06:27:03.408Z,5.47
2022-10-02T06:29:30.767Z,6.82
2022-10-02T06:32:00.823Z,6.53
2022-10-02T06:34:29.200Z,5.65
2022-10-02T06:37:19.615Z,6.13
2022-10-02T06:39:58.738Z,7.65
2022-10-02T06:42:42.586Z,6.15
2022-10-02T06:45:28.424Z,5.47
2022-10-02T06:48:05.984Z,8.20
2022-10-02T06:50:36.238Z,7.22
2022-10-02T06:53:23.067Z,8.02
2022-10-02T06:55:53.231Z,7.38
2022-10-02T06:58:22.013Z,6.68
2022-10-02T07:01:07.951Z,5.53
2022-10-02T07:03:52.022Z,5.53
2022-10-02T07:06:36.350Z,5.60
2022-10-02T07:09:06.853Z,5.30
2022-10-02T07:11:43.371Z,5.93
2022-10-02T07:14:30.599Z,5.80
2022-10-02T07:17:21.536Z,5.85
2022-10-02T07:20:10.328Z,6.03
2022-10-02T07:22:56.592Z,8.27
2022-10-02T07:25:36.277Z,5.90
2022-10-02T07:28:10.720Z,7.03
2022-10-02T07:30:48.039Z,8.38
2022-10-02T07:33:23.556Z,6.95
2022-10-02T07:36:03.575Z,12.82
2022-10-02T07:38:47.388Z,7.68
2022-10-02T07:41:20.792Z,6.88
2022-10-02T07:43:54.239Z,7.43
2022-10-02T07:46:21.562Z,8.05
2022-10-02T07:48:55.101Z,6.35
2022-10-02T07:51:47.691Z,6.32
2022-10-02T07:54:35.029Z,6.43
2022-10-02T07:57:21.499Z,6.40
2022-10-02T07:59:52.119Z,5.72
2022-10-02T08:02:35.741Z,5.65
2022-10-02T08:05:04.915Z,5.95
2022-10-02T08:07:32.789Z,6.00
2022-10-02T08:10:03.728Z,6.60
2022-10-02T08:13:07.290Z,5.60
2022-10-02T08:15:36.629Z,6.00
2022-10-02T08:18:33.742Z,6.05
2022-10-02T08:21:02.894Z,7.10
2022-10-02T08:23:34.299Z,6.93
2022-10-02T08:26:16.333Z,7.65
2022-10-02T08:29:08.940Z,7.10
2022-10-02T08:31:36.936Z,6.45
2022-10-02T08:34:13.430Z,8.00
2022-10-02T08:37:00.010Z,6.70
2022-10-02T08:39:30.361Z,7.10
2022-10-02T08:42:10.592Z,7.30
2022-10-02T08:44:47.204Z,7.05
2022-10-02T08:47:23.840Z,6.22
2022-10-02T08:50:00.250Z,6.35
2022-10-02T08:52:54.393Z,5.30
2022-10-02T08:55:31.310Z,5.78
2022-10-02T08:58:17.272Z,7.10
2022-10-02T09:00:55.695Z,6.20
2022-10-02T09:03:44.987Z,6.18
2022-10-02T09:06:24.909Z,5.35
2022-10-02T09:08:58.470Z,5.78
2022-10-02T09:11:25.911Z,5.72
2022-10-02T09:14:10.275Z,5.38
2022-10-02T09:16:38.468Z,5.00
2022-10-02T09:19:12.609Z,5.30
2022-10-02T09:21:42.801Z,5.13
2022-10-02T09:24:30.091Z,5.85
2022-10-02T09:27:01.043Z,5.10
2022-10-02T09:29:41.247Z,5.63
2022-10-02T09:32:27.764Z,5.57
2022-10-02T09:35:15.124Z,5.63
2022-10-02T09:37:59.731Z,6.43
2022-10-02T09:40:33.414Z,6.57
2022-10-02T09:43:00.920Z,5.93
2022-10-02T09:45:47.175Z,5.97
2022-10-02T09:48:30.847Z,7.32
2022-10-02T09:51:10.609Z,6.30
2022-10-02T09:53:47.125Z,12.32
2022-10-02T09:56:39.411Z,12.05
2022-10-02T09:59:26.067Z,13.57
2022-10-02T10:02:12.062Z,7.82
2022-10-02T10:05:04.438Z,7.55
2022-10-02T10:07:41.938Z,7.25
2022-10-02T10:10:27.750Z,7.30
2022-10-02T10:13:04.351Z,7.63
2022-10-02T10:15:35.219Z,7.28
2022-10-02T10:18:12.547Z,6.20
2022-10-02T10:20:46.572Z,5.40
2022-10-02T10:23:39.889Z,7.03
2022-10-02T10:26:22.842Z,5.25
2022-10-02T10:28:56.402Z,5.55
2022-10-02T10:31:27.067Z,5.45
2022-10-02T10:34:02.848Z,5.03
2022-10-02T10:36:52.301Z,4.90
2022-10-02T10:39:38.492Z,6.10
2022-10-02T10:42:24.492Z,5.35
2022-10-02T10:45:10.787Z,6.43
2022-10-02T10:47:56.722Z,4.97
2022-10-02T10:50:27.339Z,3.90
2022-10-02T10:53:13.460Z,5.53
2022-10-02T10:55:59.709Z,5.60
2022-10-02T10:58:27.075Z,4.53
2022-10-02T11:01:04.164Z,5.03
2022-10-02T11:03:34.614Z,5.30
2022-10-02T11:06:28.434Z,5.75
2022-10-02T11:09:14.306Z,5.10
2022-10-02T11:12:17.063Z,5.47
2022-10-02T11:14:47.485Z,7.00
2022-10-02T11:17:33.316Z,6.75
2022-10-02T11:20:03.969Z,8.95
2022-10-02T11:22:31.234Z,8.75
2022-10-02T11:25:12.824Z,10.10
2022-10-02T11:27:40.574Z,9.95
2022-10-02T11:30:20.802Z,9.02
2022-10-02T11:33:02.831Z,6.90
2022-10-02T11:35:36.269Z,8.90
2022-10-02T11:38:13.212Z,6.43
2022-10-02T11:40:59.640Z,10.43
2022-10-02T11:43:30.191Z,5.82
2022-10-02T11:46:03.976Z,8.05
2022-10-02T11:48:50.023Z,5.70
2022-10-02T11:51:26.993Z,5.45
2022-10-02T11:54:03.385Z,5.15
2022-10-02T11:56:53.559Z,5.80
2022-10-02T11:59:30.761Z,5.20
2022-10-02T12:02:16.768Z,5.82
2022-10-02T12:05:06.089Z,6.93
2022-10-02T12:07:49.156Z,5.68
2022-10-02T12:10:35.795Z,5.75
2022-10-02T12:13:21.799Z,5.40
2022-10-02T12:15:49.177Z,4.38
2022-10-02T12:18:36.380Z,6.32
2022-10-02T12:21:22.262Z,7.63
2022-10-02T12:24:08.209Z,4.97
2022-10-02T12:26:59.865Z,5.70
2022-10-02T12:29:30.167Z,8.40
2022-10-02T12:32:08.553Z,5.70
2022-10-02T12:34:35.841Z,7.30
2022-10-02T12:37:09.170Z,6.15
2022-10-02T12:39:36.743Z,8.18
2022-10-02T12:42:31.110Z,6.57
2022-10-02T12:44:58.467Z,5.18
2022-10-02T12:47:31.897Z,6.82
2022-10-02T12:49:59.841Z,6.50
2022-10-02T12:52:45.784Z,5.28
2022-10-02T12:55:25.458Z,4.82
2022-10-02T12:58:05.403Z,6.28
2022-10-02T13:00:51.205Z,5.65
2022-10-02T13:03:30.981Z,4.85
2022-10-02T13:05:58.463Z,4.40
2022-10-02T13:08:31.813Z,4.97
2022-10-02T13:10:59.409Z,4.57
2022-10-02T13:13:36.358Z,4.10
2022-10-02T13:16:13.034Z,4.15
2022-10-02T13:18:58.928Z,2.72
2022-10-02T13:21:26.890Z,2.63
2022-10-02T13:23:54.692Z,3.13
2022-10-02T13:26:25.392Z,4.60
2022-10-02T13:29:10.899Z,2.95
2022-10-02T13:34:25.606Z,3.15
2022-10-02T13:37:14.234Z,3.50
2022-10-02T13:39:41.654Z,3.17
2022-10-02T13:42:14.938Z,4.72
2022-10-02T13:44:49.003Z,3.80
2022-10-02T13:47:25.508Z,5.10
2022-10-02T13:49:54.501Z,6.78
2022-10-02T13:52:22.143Z,3.40
2022-10-02T13:55:13.418Z,3.88
2022-10-02T13:58:03.931Z,3.47
2022-10-02T14:00:40.441Z,3.97
2022-10-02T14:03:13.972Z,10.82
2022-10-02T14:05:44.443Z,4.55
2022-10-02T14:08:21.375Z,3.42
2022-10-02T14:11:02.444Z,3.20
2022-10-02T14:13:46.036Z,15.15
2022-10-02T14:16:25.726Z,2.90
2022-10-02T14:18:56.145Z,2.47
2022-10-02T14:21:31.259Z,2.72
2022-10-02T14:26:29.088Z,2.40
2022-10-02T14:29:07.727Z,2.83
2022-10-02T14:31:42.988Z,2.50
2022-10-02T14:34:14.116Z,3.33
2022-10-02T14:36:53.771Z,3.28
2022-10-02T14:39:21.068Z,4.78
2022-10-02T14:42:07.263Z,5.10
2022-10-02T14:44:59.181Z,4.40
2022-10-02T14:47:46.345Z,3.05
2022-10-02T14:50:19.073Z,3.22
2022-10-02T14:52:53.943Z,2.55
2022-10-02T14:55:26.502Z,2.17
2022-10-02T14:57:54.051Z,3.17
2022-10-02T15:00:25.399Z,2.72
2022-10-02T15:02:52.834Z,2.50
2022-10-02T15:05:21.365Z,2.10
2022-10-02T15:07:48.859Z,1.60
2022-10-02T15:10:22.161Z,3.03
2022-10-02T15:13:03.579Z,2.40
2022-10-02T15:16:13.091Z,3.95
2022-10-02T15:18:59.185Z,2.50
2022-10-02T15:21:32.984Z,2.38
2022-10-02T15:24:18.366Z,2.20
2022-10-02T15:26:57.749Z,1.70
2022-10-02T15:29:48.471Z,3.20
2022-10-02T15:32:21.938Z,2.25
2022-10-02T15:34:55.412Z,2.03
2022-10-02T15:37:39.970Z,1.83
2022-10-02T15:40:13.189Z,3.07
2022-10-02T15:42:49.894Z,2.88
2022-10-02T15:45:22.754Z,1.80
2022-10-02T15:47:54.717Z,3.00
2022-10-02T15:50:49.131Z,3.70
2022-10-02T15:53:26.942Z,2.95
2022-10-02T15:55:54.883Z,3.58
2022-10-02T15:58:27.071Z,3.50
2022-10-02T16:01:02.579Z,3.90
2022-10-02T16:03:38.115Z,3.85
2022-10-02T16:06:14.867Z,4.80
2022-10-02T16:09:04.151Z,4.50
2022-10-02T16:11:44.040Z,3.00
2022-10-02T16:14:15.992Z,4.40
2022-10-02T16:17:02.331Z,5.97
2022-10-02T16:19:33.449Z,4.85
2022-10-02T16:22:00.806Z,4.50
2022-10-02T16:24:50.881Z,5.20
2022-10-02T16:27:24.353Z,15.43
2022-10-02T16:30:00.990Z,9.60
2022-10-02T16:32:29.145Z,11.48
2022-10-02T16:34:56.437Z,11.93
2022-10-02T16:37:29.454Z,13.75
2022-10-02T16:40:03.336Z,11.13
2022-10-02T16:42:33.727Z,16.80
2022-10-02T16:45:16.671Z,6.68
2022-10-02T16:47:51.833Z,4.90
2022-10-02T16:52:53.798Z,3.92
2022-10-02T16:55:24.090Z,3.63
2022-10-02T16:58:00.690Z,7.88
2022-10-02T17:01:05.323Z,6.57
2022-10-02T17:03:35.482Z,4.57
2022-10-02T17:06:05.643Z,4.70
2022-10-02T17:08:42.385Z,9.30
2022-10-02T17:11:35.947Z,6.90
2022-10-02T17:14:19.965Z,7.22
2022-10-02T17:16:53.541Z,8.80
2022-10-02T17:19:20.942Z,7.18
2022-10-02T17:21:51.308Z,6.20
2022-10-02T17:24:41.958Z,4.43
2022-10-02T17:27:12.252Z,2.78
2022-10-02T17:30:00.614Z,2.40
2022-10-02T17:33:02.237Z,1.88
2022-10-02T17:35:35.691Z,5.88
2022-10-02T17:38:03.600Z,5.32
2022-10-02T17:40:30.859Z,12.32
2022-10-02T17:43:04.422Z,8.07
2022-10-02T17:45:37.920Z,6.13
2022-10-02T17:48:24.331Z,9.48
2022-10-02T17:50:55.726Z,8.75
2022-10-02T17:53:56.293Z,7.47
2022-10-02T17:56:39.063Z,7.78
2022-10-02T18:02:36.346Z,5.05
2022-10-02T18:05:21.773Z,3.25
2022-10-02T18:07:50.245Z,2.67
2022-10-02T18:10:17.579Z,2.80
2022-10-02T18:13:11.259Z,2.72
2022-10-02T18:15:44.030Z,2.78
2022-10-02T18:18:23.694Z,2.80
2022-10-02T18:21:12.291Z,3.20
2022-10-02T18:23:42.938Z,3.58
2022-10-02T18:26:14.347Z,2.65
2022-10-02T18:28:54.229Z,2.70
2022-10-02T18:31:54.199Z,2.08
2022-10-02T18:34:31.790Z,2.58
2022-10-02T18:37:11.853Z,2.35
2022-10-02T18:40:07.322Z,1.80
2022-10-02T18:42:41.106Z,1.90
2022-10-02T18:45:43.943Z,1.73
2022-10-02T18:48:20.704Z,1.60
2022-10-02T18:50:55.332Z,2.15
2022-10-02T18:53:23.154Z,3.65
2022-10-02T18:55:52.256Z,2.33
2022-10-02T18:58:29.572Z,1.70
2022-10-02T19:01:03.298Z,1.85
2022-10-02T19:03:33.769Z,1.83
2022-10-02T19:06:19.594Z,1.65
2022-10-02T19:09:06.892Z,1.23
2022-10-02T19:11:36.325Z,2.13
2022-10-02T19:14:24.202Z,2.20
2022-10-02T19:16:59.144Z,2.55
2022-10-02T19:19:30.531Z,2.55
2022-10-02T19:22:11.333Z,3.03
2022-10-02T19:24:40.592Z,4.80
2022-10-02T19:27:10.196Z,3.70
2022-10-02T19:29:43.025Z,2.40
2022-10-02T19:32:21.787Z,6.18
2022-10-02T19:34:50.669Z,5.53
2022-10-02T19:37:19.145Z,4.40
2022-10-02T19:40:08.979Z,3.20
2022-10-02T19:42:46.288Z,4.07
2022-10-02T19:45:25.673Z,7.25
2022-10-02T19:47:58.004Z,7.05
2022-10-02T19:50:44.920Z,4.68
2022-10-02T19:53:42.660Z,3.75
2022-10-02T19:56:15.197Z,3.05
2022-10-02T19:58:47.586Z,2.75
2022-10-02T20:01:27.519Z,3.10
2022-10-02T20:04:01.679Z,2.63
2022-10-02T20:06:34.409Z,2.55
2022-10-02T20:09:17.418Z,4.10
2022-10-02T20:11:47.261Z,3.92
2022-10-02T20:14:26.974Z,2.85
2022-10-02T20:17:09.771Z,2.60
2022-10-02T20:19:55.679Z,2.33
2022-10-02T20:22:34.887Z,2.80
2022-10-02T20:25:06.645Z,2.72
2022-10-02T20:27:40.692Z,1.80
2022-10-02T20:30:18.073Z,2.10
2022-10-02T20:32:48.406Z,2.55
2022-10-02T20:35:18.892Z,4.82
2022-10-02T20:37:49.524Z,3.35
2022-10-02T20:40:23.226Z,3.03
2022-10-02T20:42:50.749Z,5.70
2022-10-02T20:45:18.385Z,2.97
2022-10-02T20:48:04.263Z,2.85
2022-10-02T20:50:34.932Z,2.60
2022-10-02T20:53:21.866Z,2.85
2022-10-02T20:55:49.236Z,3.78
2022-10-02T20:58:25.660Z,4.20
2022-10-02T21:01:05.415Z,6.07
2022-10-02T21:03:33.082Z,8.02
2022-10-02T21:06:19.422Z,6.80
2022-10-02T21:08:54.013Z,6.97
2022-10-02T21:11:45.683Z,5.82
2022-10-02T21:14:32.328Z,4.68
2022-10-02T21:16:59.908Z,4.28
2022-10-02T21:19:45.724Z,4.00
2022-10-02T21:22:16.365Z,4.32
2022-10-02T21:25:07.409Z,3.80
2022-10-02T21:27:38.254Z,3.78
2022-10-02T21:30:16.145Z,3.33
2022-10-02T21:32:51.321Z,3.58
2022-10-02T21:35:32.340Z,3.30
2022-10-02T21:38:23.835Z,3.70
2022-10-02T21:40:57.551Z,3.60
2022-10-02T21:43:44.669Z,4.35
2022-10-02T21:46:30.796Z,3.83
2022-10-02T21:49:08.576Z,3.50
2022-10-02T21:51:39.014Z,4.30
2022-10-02T21:54:36.577Z,3.83
2022-10-02T21:57:03.910Z,3.85
2022-10-02T21:59:46.968Z,4.03
2022-10-02T22:02:14.631Z,3.67
2022-10-02T22:05:10.472Z,3.40
2022-10-02T22:07:37.936Z,4.20
2022-10-02T22:10:13.395Z,3.83
2022-10-02T22:12:56.573Z,3.90
2022-10-02T22:15:32.097Z,4.03
2022-10-02T22:18:22.754Z,4.50
2022-10-02T22:20:59.671Z,4.38
2022-10-02T22:23:33.583Z,4.35
2022-10-02T22:26:00.951Z,6.03
2022-10-02T22:28:49.094Z,10.85
2022-10-02T22:31:28.740Z,12.48
2022-10-02T22:33:57.559Z,10.60
2022-10-02T22:36:32.286Z,9.70
2022-10-02T22:39:08.080Z,9.50
2022-10-02T22:41:40.550Z,8.27
2022-10-02T22:44:08.161Z,9.77
2022-10-02T22:46:40.893Z,13.88
2022-10-02T22:49:28.664Z,9.50
2022-10-02T22:52:20.271Z,7.10
2022-10-02T22:54:47.628Z,7.97
2022-10-02T22:57:32.017Z,6.97
2022-10-02T23:00:11.393Z,5.90
2022-10-02T23:02:59.336Z,5.95
2022-10-02T23:05:31.661Z,5.18
2022-10-02T23:08:21.985Z,3.88
2022-10-02T23:11:02.288Z,5.63
2022-10-02T23:13:34.242Z,4.53
2022-10-02T23:16:24.642Z,6.22
2022-10-02T23:19:18.513Z,4.25
2022-10-02T23:21:54.506Z,5.93
2022-10-02T23:24:30.791Z,10.77
2022-10-02T23:26:59.299Z,5.50
2022-10-02T23:29:29.035Z,8.10
2022-10-02T23:32:09.852Z,7.82
2022-10-02T23:34:40.241Z,5.90
2022-10-02T23:37:16.824Z,7.45
2022-10-02T23:39:48.439Z,4.30
2022-10-02T23:42:20.766Z,4.05
2022-10-02T23:44:58.130Z,5.93
2022-10-02T23:47:29.291Z,5.80
2022-10-02T23:50:02.387Z,4.82
2022-10-02T23:52:33.276Z,3.83
2022-10-02T23:55:32.998Z,4.15
2022-10-02T23:58:15.927Z,3.38
